createdAt,value
2022-12-03T00:03:03.875Z,100483.19
2022-12-03T00:08:07.167Z,100487.79
2022-12-03T00:13:10.186Z,100485.23
2022-12-03T00:18:13.208Z,100487.61
2022-12-03T00:23:16.254Z,100491.86
2022-12-03T00:28:19.308Z,100489.35
2022-12-03T00:33:23.174Z,100488.73
2022-12-03T00:38:29.089Z,100490.49
2022-12-03T00:43:33.183Z,100488.60
2022-12-03T00:48:36.202Z,100488.80
2022-12-03T00:53:39.203Z,100489.16
2022-12-03T00:58:42.192Z,100495.12
2022-12-03T01:03:45.213Z,100491.02
2022-12-03T01:08:48.216Z,100487.61
2022-12-03T01:13:51.211Z,100489.17
2022-12-03T01:18:54.233Z,100490.59
2022-12-03T01:23:57.987Z,100486.89
2022-12-03T01:29:00.999Z,100484.34
2022-12-03T01:34:04.337Z,100480.25
2022-12-03T01:39:07.779Z,100476.66
2022-12-03T01:44:23.416Z,100475.61
2022-12-03T01:49:39.930Z,100478.50
2022-12-03T01:54:48.380Z,100480.54
2022-12-03T01:59:53.537Z,100479.75
2022-12-03T02:04:57.058Z,100483.01
2022-12-03T02:10:03.214Z,100485.20
2022-12-03T02:15:08.200Z,100482.98
2022-12-03T02:20:13.053Z,100481.41
2022-12-03T02:25:29.437Z,100478.98
2022-12-03T02:30:32.874Z,100479.66
2022-12-03T02:35:38.653Z,100476.44
2022-12-03T02:40:43.159Z,100475.12
2022-12-03T02:45:54.046Z,100477.87
2022-12-03T02:51:11.307Z,100477.34
2022-12-03T02:56:21.249Z,100475.98
2022-12-03T03:01:27.336Z,100474.79
2022-12-03T03:06:31.008Z,100473.43
2022-12-03T03:11:34.095Z,100470.73
2022-12-03T03:16:37.846Z,100467.87
2022-12-03T03:21:43.978Z,100469.08
2022-12-03T03:26:47.871Z,100467.05
2022-12-03T03:31:50.849Z,100465.67
2022-12-03T03:36:54.286Z,100460.54
2022-12-03T03:41:57.426Z,100453.35
2022-12-03T03:47:01.250Z,100455.38
2022-12-03T03:52:04.845Z,100451.31
2022-12-03T03:57:07.966Z,100450.13
2022-12-03T04:02:22.897Z,100444.86
2022-12-03T04:07:26.033Z,100449.29
2022-12-03T04:12:47.834Z,100449.24
2022-12-03T04:18:11.254Z,100452.67
2022-12-03T04:23:14.273Z,100451.17
2022-12-03T04:28:36.178Z,100448.14
2022-12-03T04:33:57.731Z,100443.02
2022-12-03T04:39:01.061Z,100442.83
2022-12-03T04:44:22.994Z,100439.91
2022-12-03T04:49:26.618Z,100442.27
2022-12-03T04:54:30.029Z,100440.43
2022-12-03T04:59:34.057Z,100430.23
2022-12-03T05:04:37.384Z,100431.59
2022-12-03T05:09:40.495Z,100429.21
2022-12-03T05:14:43.491Z,100429.57
2022-12-03T05:20:05.358Z,100433.64
2022-12-03T05:25:09.463Z,100438.23
2022-12-03T05:30:12.972Z,100435.34
2022-12-03T05:35:16.118Z,100443.02
2022-12-03T05:40:20.111Z,100440.14
2022-12-03T05:45:35.268Z,100443.37
2022-12-03T05:50:43.942Z,100444.92
2022-12-03T05:55:47.095Z,100448.01
2022-12-03T06:00:50.144Z,100448.86
2022-12-03T06:05:53.218Z,100446.96
2022-12-03T06:10:56.244Z,100442.70
2022-12-03T06:15:59.361Z,100439.80
2022-12-03T06:21:03.435Z,100440.85
2022-12-03T06:26:06.746Z,100447.86
2022-12-03T06:31:09.767Z,100455.55
2022-12-03T06:36:12.855Z,100453.84
2022-12-03T06:41:15.863Z,100450.41
2022-12-03T06:46:18.989Z,100449.73
2022-12-03T06:51:22.103Z,100452.80
2022-12-03T06:56:26.483Z,100459.44
2022-12-03T07:01:31.522Z,100452.81
2022-12-03T07:06:34.549Z,100455.73
2022-12-03T07:11:40.631Z,100449.77
2022-12-03T07:16:44.158Z,100448.58
2022-12-03T07:21:47.205Z,100449.75
2022-12-03T07:26:50.215Z,100442.08
2022-12-03T07:31:53.380Z,100447.38
2022-12-03T07:36:56.455Z,100440.91
2022-12-03T07:42:00.047Z,100436.83
2022-12-03T07:47:03.221Z,100437.33
2022-12-03T07:52:07.433Z,100435.96
2022-12-03T07:57:10.505Z,100438.02
2022-12-03T08:02:18.206Z,100443.82
2022-12-03T08:07:24.730Z,100443.15
2022-12-03T08:12:42.867Z,100438.21
2022-12-03T08:17:51.682Z,100434.98
2022-12-03T08:22:56.364Z,100434.46
2022-12-03T08:28:11.490Z,100437.01
2022-12-03T08:33:36.927Z,100436.48
2022-12-03T08:38:40.366Z,100439.74
2022-12-03T08:43:44.028Z,100441.96
2022-12-03T08:48:49.388Z,100445.20
2022-12-03T08:54:02.157Z,100448.64
2022-12-03T08:59:30.766Z,100441.30
2022-12-03T09:04:46.878Z,100436.52
2022-12-03T09:09:49.953Z,100426.10
2022-12-03T09:14:53.191Z,100424.06
2022-12-03T09:19:56.396Z,100427.48
2022-12-03T09:24:59.575Z,100438.58
2022-12-03T09:30:03.549Z,100436.35
2022-12-03T09:35:07.443Z,100438.06
2022-12-03T09:40:11.809Z,100440.10
2022-12-03T09:45:16.085Z,100437.89
2022-12-03T09:50:26.459Z,100432.77
2022-12-03T09:55:30.129Z,100429.86
2022-12-03T10:00:33.120Z,100425.92
2022-12-03T10:05:36.253Z,100420.45
2022-12-03T10:10:42.080Z,100415.67
2022-12-03T10:15:45.183Z,100418.04
2022-12-03T10:20:49.076Z,100412.92
2022-12-03T10:26:04.220Z,100406.61
2022-12-03T10:31:11.345Z,100410.35
2022-12-03T10:36:20.749Z,100413.41
2022-12-03T10:41:28.531Z,100406.73
2022-12-03T10:46:31.567Z,100408.40
2022-12-03T10:51:35.347Z,100408.73
2022-12-03T10:56:38.464Z,100406.84
2022-12-03T11:01:41.650Z,100406.87
2022-12-03T11:06:48.338Z,100403.63
2022-12-03T11:11:51.499Z,100404.11
2022-12-03T11:17:07.577Z,100404.95
2022-12-03T11:22:10.599Z,100404.72
2022-12-03T11:27:20.873Z,100405.54
2022-12-03T11:32:39.788Z,100408.28
2022-12-03T11:37:42.867Z,100405.25
2022-12-03T11:42:48.977Z,100396.69
2022-12-03T11:47:58.192Z,100396.13
2022-12-03T11:53:08.075Z,100392.52
2022-12-03T11:58:32.181Z,100389.49
2022-12-03T12:03:49.006Z,100386.94
2022-12-03T12:08:52.068Z,100374.45
2022-12-03T12:14:07.018Z,100367.60
2022-12-03T12:19:43.664Z,100367.42
2022-12-03T12:24:51.815Z,100368.38
2022-12-03T12:30:01.534Z,100371.58
2022-12-03T12:35:17.829Z,100373.93
2022-12-03T12:40:26.925Z,100376.16
2022-12-03T12:45:35.178Z,100381.13
2022-12-03T12:50:39.510Z,100384.39
2022-12-03T12:55:42.585Z,100379.30
2022-12-03T13:00:57.237Z,100374.34
2022-12-03T13:06:02.756Z,100376.34
2022-12-03T13:11:12.138Z,100378.37
2022-12-03T13:16:34.014Z,100376.46
2022-12-03T13:21:44.776Z,100373.84
2022-12-03T13:26:47.834Z,100373.48
2022-12-03T13:32:10.092Z,100369.70
2022-12-03T13:37:34.000Z,100377.40
2022-12-03T13:42:42.280Z,100375.53
2022-12-03T13:47:54.062Z,100375.11
2022-12-03T13:52:57.462Z,100376.55
2022-12-03T13:58:00.443Z,100381.65
2022-12-03T14:03:03.607Z,100386.34
2022-12-03T14:08:06.710Z,100383.36
2022-12-03T14:13:09.748Z,100388.22
2022-12-03T14:18:12.718Z,100391.70
2022-12-03T14:23:16.065Z,100388.33
2022-12-03T14:28:19.043Z,100385.92
2022-12-03T14:33:22.021Z,100381.76
2022-12-03T14:38:25.089Z,100380.28
2022-12-03T14:43:28.096Z,100382.63
2022-12-03T14:48:31.083Z,100397.40
2022-12-03T14:53:34.059Z,100413.02
2022-12-03T14:58:37.045Z,100419.55
2022-12-03T15:03:40.028Z,100419.75
2022-12-03T15:08:43.052Z,100419.60
2022-12-03T15:13:46.086Z,100415.84
2022-12-03T15:18:49.211Z,100422.34
2022-12-03T15:23:52.219Z,100434.60
2022-12-03T15:28:55.285Z,100426.59
2022-12-03T15:33:58.681Z,100430.70
2022-12-03T15:39:01.731Z,100431.91
2022-12-03T15:44:05.681Z,100432.64
2022-12-03T15:49:08.528Z,100433.34
2022-12-03T15:54:12.481Z,100430.39
2022-12-03T15:59:15.316Z,100428.12
2022-12-03T16:04:18.321Z,100430.17
2022-12-03T16:09:26.943Z,100431.71
2022-12-03T16:14:30.640Z,100438.39
2022-12-03T16:19:33.653Z,100441.77
2022-12-03T16:24:36.694Z,100445.17
2022-12-03T16:29:39.706Z,100444.28
2022-12-03T16:34:42.729Z,100446.98
2022-12-03T16:39:45.830Z,100454.27
2022-12-03T16:45:23.010Z,100453.70
2022-12-03T16:50:29.872Z,100451.09
2022-12-03T16:55:33.725Z,100449.92
2022-12-03T17:00:37.190Z,100441.05
2022-12-03T17:05:40.691Z,100446.20
2022-12-03T17:10:44.883Z,100445.39
2022-12-03T17:15:47.979Z,100440.60
2022-12-03T17:20:50.977Z,100440.60
2022-12-03T17:25:54.003Z,100451.39
2022-12-03T17:30:57.056Z,100450.94
2022-12-03T17:36:00.106Z,100453.73
2022-12-03T17:41:03.129Z,100458.33
2022-12-03T17:46:07.564Z,100456.09
2022-12-03T17:51:10.600Z,100458.30
2022-12-03T17:56:13.638Z,100460.33
2022-12-03T18:01:16.745Z,100466.46
2022-12-03T18:06:19.854Z,100462.70
2022-12-03T18:11:23.596Z,100460.02
2022-12-03T18:16:26.980Z,100462.66
2022-12-03T18:21:30.029Z,100452.92
2022-12-03T18:26:33.080Z,100456.52
2022-12-03T18:31:36.123Z,100454.84
2022-12-03T18:36:39.144Z,100458.25
2022-12-03T18:41:42.185Z,100464.44
2022-12-03T18:46:53.663Z,100461.73
2022-12-03T18:51:59.620Z,100459.16
2022-12-03T18:57:05.905Z,100463.61
2022-12-03T19:02:38.637Z,100459.37
2022-12-03T19:07:40.095Z,100465.55
2022-12-03T19:12:43.266Z,100462.13
2022-12-03T19:17:50.744Z,100461.63
2022-12-03T19:22:53.775Z,100460.44
2022-12-03T19:27:57.476Z,100459.77
2022-12-03T19:33:00.506Z,100462.14
2022-12-03T19:38:03.488Z,100460.94
2022-12-03T19:43:06.490Z,100458.73
2022-12-03T19:48:09.858Z,100456.86
2022-12-03T19:53:12.811Z,100454.83
2022-12-03T19:58:15.781Z,100459.10
2022-12-03T20:03:18.777Z,100461.50
2022-12-03T20:08:21.857Z,100460.27
2022-12-03T20:13:25.007Z,100457.38
2022-12-03T20:18:28.019Z,100453.80
2022-12-03T20:23:30.998Z,100457.06
2022-12-03T20:28:34.006Z,100459.27
2022-12-03T20:33:38.279Z,100459.62
2022-12-03T20:38:41.338Z,100457.75
2022-12-03T20:43:45.809Z,100455.36
2022-12-03T20:48:50.432Z,100449.90
2022-12-03T20:53:54.065Z,100448.56
2022-12-03T20:59:00.654Z,100444.13
2022-12-03T21:04:05.213Z,100443.09
2022-12-03T21:09:10.159Z,100449.77
2022-12-03T21:14:13.164Z,100452.81
2022-12-03T21:19:20.829Z,100458.29
2022-12-03T21:24:23.983Z,100460.68
2022-12-03T21:29:27.075Z,100477.75
2022-12-03T21:34:36.111Z,100483.55
2022-12-03T21:39:39.687Z,100480.48
2022-12-03T21:44:42.695Z,100484.75
2022-12-03T21:49:45.679Z,100481.48
2022-12-03T21:54:51.823Z,100476.87
2022-12-03T21:59:56.075Z,100470.73
2022-12-03T22:04:59.233Z,100464.08
2022-12-03T22:10:03.510Z,100461.34
2022-12-03T22:15:07.474Z,100457.72
2022-12-03T22:20:10.878Z,100449.70
2022-12-03T22:25:13.888Z,100440.66
2022-12-03T22:30:17.009Z,100436.57
2022-12-03T22:35:21.444Z,100436.73
2022-12-03T22:40:24.476Z,100439.30
2022-12-03T22:45:27.495Z,100438.65
2022-12-03T22:50:30.493Z,100438.65
2022-12-03T22:55:33.475Z,100435.73
2022-12-03T23:00:40.332Z,100432.65
2022-12-03T23:05:43.482Z,100436.92
2022-12-03T23:10:50.484Z,100435.70
2022-12-03T23:15:53.556Z,100429.73
2022-12-03T23:20:57.623Z,100429.56
2022-12-03T23:26:09.933Z,100430.45
2022-12-03T23:31:33.469Z,100435.05
2022-12-03T23:36:36.739Z,100436.77
2022-12-03T23:41:39.743Z,100436.77
2022-12-03T23:46:42.855Z,100436.75
2022-12-03T23:51:46.908Z,100439.16
2022-12-03T23:56:49.856Z,100442.74
